createdAt,value
2023-03-21T00:01:53.347Z,11.70
2023-03-21T00:04:23.727Z,12.40
2023-03-21T00:06:52.605Z,12.97
2023-03-21T00:09:21.266Z,10.70
2023-03-21T00:11:49.767Z,10.70
2023-03-21T00:14:20.258Z,10.60
2023-03-21T00:16:51.285Z,10.47
2023-03-21T00:19:21.017Z,10.97
2023-03-21T00:22:06.631Z,9.67
2023-03-21T00:24:36.679Z,8.53
2023-03-21T00:27:34.279Z,8.60
2023-03-21T00:29:54.144Z,10.00
2023-03-21T00:32:23.154Z,9.20
2023-03-21T00:35:11.927Z,7.23
2023-03-21T00:37:42.029Z,8.30
2023-03-21T00:40:25.337Z,8.77
2023-03-21T00:42:56.100Z,8.13
2023-03-21T00:45:24.448Z,8.83
2023-03-21T00:47:52.936Z,7.60
2023-03-21T00:50:22.454Z,9.23
2023-03-21T00:52:52.231Z,8.30
2023-03-21T00:55:21.319Z,8.10
2023-03-21T00:57:56.153Z,8.73
2023-03-21T01:00:28.117Z,8.10
2023-03-21T01:03:17.650Z,7.23
2023-03-21T01:06:06.929Z,8.27
2023-03-21T01:08:51.289Z,7.20
2023-03-21T01:11:24.147Z,7.80
2023-03-21T01:14:07.229Z,8.57
2023-03-21T01:16:40.254Z,8.00
2023-03-21T01:19:22.194Z,7.97
2023-03-21T01:21:53.110Z,7.07
2023-03-21T01:24:23.033Z,7.47
2023-03-21T01:26:51.579Z,8.33
2023-03-21T01:29:19.829Z,9.20
2023-03-21T01:31:48.333Z,8.50
2023-03-21T01:34:16.700Z,8.70
2023-03-21T01:36:45.318Z,8.40
2023-03-21T01:39:13.712Z,8.20
2023-03-21T01:41:44.793Z,8.47
2023-03-21T01:44:17.832Z,7.40
2023-03-21T01:47:03.637Z,8.30
2023-03-21T01:49:41.726Z,7.00
2023-03-21T01:52:21.110Z,8.57
2023-03-21T01:54:57.462Z,7.50
2023-03-21T01:57:42.425Z,7.47
2023-03-21T02:00:15.605Z,8.33
2023-03-21T02:02:52.673Z,7.67
2023-03-21T02:05:29.008Z,7.83
2023-03-21T02:07:57.530Z,7.60
2023-03-21T02:10:26.196Z,7.57
2023-03-21T02:12:58.260Z,7.20
2023-03-21T02:15:28.316Z,6.90
2023-03-21T02:18:04.106Z,7.50
2023-03-21T02:20:51.237Z,8.10
2023-03-21T02:24:08.700Z,7.43
2023-03-21T02:27:03.555Z,7.80
2023-03-21T02:30:01.468Z,7.43
2023-03-21T02:32:38.775Z,7.83
2023-03-21T02:35:31.734Z,8.20
2023-03-21T02:38:09.324Z,7.93
2023-03-21T02:40:43.656Z,10.00
2023-03-21T02:43:23.484Z,8.93
2023-03-21T02:45:56.125Z,7.60
2023-03-21T02:48:35.519Z,7.20
2023-03-21T02:51:17.288Z,7.67
2023-03-21T02:54:04.609Z,7.60
2023-03-21T02:56:40.505Z,9.00
2023-03-21T02:59:09.540Z,7.53
2023-03-21T03:01:38.264Z,8.20
2023-03-21T03:04:18.659Z,7.03
2023-03-21T03:07:04.700Z,7.80
2023-03-21T03:09:48.362Z,6.50
2023-03-21T03:12:26.196Z,7.60
2023-03-21T03:15:04.434Z,8.40
2023-03-21T03:17:51.459Z,8.07
2023-03-21T03:20:27.289Z,7.03
2023-03-21T03:23:08.080Z,7.63
2023-03-21T03:25:44.700Z,6.90
2023-03-21T03:28:16.472Z,7.03
2023-03-21T03:31:00.875Z,7.20
2023-03-21T03:33:36.333Z,6.80
2023-03-21T03:36:07.051Z,7.03
2023-03-21T03:38:38.300Z,7.00
2023-03-21T03:41:12.105Z,6.90
2023-03-21T03:43:48.884Z,7.67
2023-03-21T03:46:20.312Z,8.03
2023-03-21T03:48:53.501Z,7.87
2023-03-21T03:51:25.816Z,7.50
2023-03-21T03:53:58.698Z,7.50
2023-03-21T03:56:29.052Z,8.43
2023-03-21T03:58:58.580Z,8.97
2023-03-21T04:01:27.029Z,8.40
2023-03-21T04:04:10.428Z,7.43
2023-03-21T04:06:41.548Z,9.00
2023-03-21T04:09:20.632Z,8.80
2023-03-21T04:11:51.760Z,9.33
2023-03-21T04:14:20.041Z,9.77
2023-03-21T04:16:49.285Z,11.50
2023-03-21T04:19:18.426Z,10.53
2023-03-21T04:21:47.763Z,10.50
2023-03-21T04:24:17.365Z,9.10
2023-03-21T04:26:45.857Z,9.83
2023-03-21T04:29:15.577Z,9.50
2023-03-21T04:31:43.983Z,8.87
2023-03-21T04:34:12.693Z,9.70
2023-03-21T04:36:44.260Z,9.77
2023-03-21T04:39:17.302Z,9.77
2023-03-21T04:41:47.388Z,9.20
2023-03-21T04:44:18.252Z,9.43
2023-03-21T04:46:46.637Z,11.97
2023-03-21T04:49:14.974Z,10.80
2023-03-21T04:51:44.203Z,11.17
2023-03-21T04:56:42.975Z,11.33
2023-03-21T04:59:14.193Z,10.50
2023-03-21T05:01:44.982Z,10.20
2023-03-21T05:04:15.801Z,9.87
2023-03-21T05:06:45.060Z,10.10
2023-03-21T05:09:14.220Z,8.90
2023-03-21T05:11:42.922Z,9.73
2023-03-21T05:14:13.430Z,9.13
2023-03-21T05:16:45.257Z,9.47
2023-03-21T05:19:14.059Z,10.20
2023-03-21T05:21:42.788Z,9.63
2023-03-21T05:24:14.537Z,10.43
2023-03-21T05:26:44.248Z,9.87
2023-03-21T05:29:13.420Z,10.27
2023-03-21T05:31:43.186Z,9.90
2023-03-21T05:34:11.488Z,10.53
2023-03-21T05:36:39.736Z,8.87
2023-03-21T05:39:08.479Z,11.00
2023-03-21T05:41:36.806Z,10.23
2023-03-21T05:44:05.164Z,11.97
2023-03-21T05:46:33.722Z,11.90
2023-03-21T05:49:03.474Z,10.73
2023-03-21T05:51:31.719Z,11.10
2023-03-21T05:54:00.024Z,10.17
2023-03-21T05:56:28.463Z,11.30
2023-03-21T05:58:56.672Z,12.37
2023-03-21T06:01:24.970Z,11.03
2023-03-21T06:03:53.375Z,11.67
2023-03-21T06:06:23.361Z,11.10
2023-03-21T06:08:51.591Z,10.83
2023-03-21T06:11:25.962Z,11.03
2023-03-21T06:13:54.214Z,10.70
2023-03-21T06:16:22.544Z,10.73
2023-03-21T06:18:50.947Z,11.37
2023-03-21T06:21:19.341Z,10.57
2023-03-21T06:23:51.672Z,13.40
2023-03-21T06:26:23.128Z,12.70
2023-03-21T06:28:51.498Z,11.83
2023-03-21T06:31:22.517Z,12.03
2023-03-21T06:33:51.766Z,12.93
2023-03-21T06:36:20.763Z,12.77
2023-03-21T06:38:50.724Z,16.73
2023-03-21T06:41:19.177Z,21.17
2023-03-21T06:43:48.573Z,30.53
2023-03-21T06:46:17.104Z,25.30
2023-03-21T06:48:45.755Z,13.50
2023-03-21T06:51:15.107Z,12.00
2023-03-21T06:53:44.685Z,13.10
2023-03-21T06:56:16.144Z,32.50
2023-03-21T06:58:44.429Z,25.40
2023-03-21T07:01:12.722Z,14.63
2023-03-21T07:03:41.068Z,15.00
2023-03-21T07:06:12.001Z,13.50
2023-03-21T07:08:41.184Z,13.70
2023-03-21T07:11:10.761Z,12.23
2023-03-21T07:13:40.599Z,11.87
2023-03-21T07:16:10.329Z,12.63
2023-03-21T07:18:38.952Z,12.17
2023-03-21T07:21:07.742Z,11.27
2023-03-21T07:23:36.201Z,11.97
2023-03-21T07:26:04.545Z,13.00
2023-03-21T07:28:33.641Z,12.60
2023-03-21T07:31:05.498Z,11.80
2023-03-21T07:33:34.690Z,13.47
2023-03-21T07:36:04.541Z,13.20
2023-03-21T07:38:32.821Z,12.93
2023-03-21T07:41:01.718Z,11.73
2023-03-21T07:43:30.286Z,12.40
2023-03-21T07:45:59.501Z,13.90
2023-03-21T07:48:29.646Z,13.97
2023-03-21T07:50:58.140Z,14.20
2023-03-21T07:53:26.539Z,14.07
2023-03-21T07:55:56.967Z,14.13
2023-03-21T07:58:25.720Z,14.73
2023-03-21T08:00:55.780Z,13.80
2023-03-21T08:03:26.487Z,14.37
2023-03-21T08:05:57.006Z,14.10
2023-03-21T08:08:25.353Z,14.63
2023-03-21T08:10:53.693Z,14.33
2023-03-21T08:13:23.090Z,13.90
2023-03-21T08:15:51.469Z,14.43
2023-03-21T08:18:19.811Z,14.57
2023-03-21T08:20:52.264Z,14.47
2023-03-21T08:23:22.969Z,15.43
2023-03-21T08:25:53.302Z,13.50
2023-03-21T08:28:22.478Z,15.20
2023-03-21T08:30:51.699Z,13.73
2023-03-21T08:33:20.698Z,13.87
2023-03-21T08:35:49.477Z,13.03
2023-03-21T08:38:18.200Z,14.10
2023-03-21T08:40:47.957Z,14.90
2023-03-21T08:43:16.418Z,18.53
2023-03-21T08:45:44.681Z,15.10
2023-03-21T08:48:13.042Z,14.63
2023-03-21T08:50:41.489Z,13.70
2023-03-21T08:53:09.720Z,13.87
2023-03-21T08:55:38.570Z,13.80
2023-03-21T08:58:08.475Z,14.00
2023-03-21T09:00:36.941Z,14.87
2023-03-21T09:03:05.485Z,13.57
2023-03-21T09:05:33.860Z,13.20
2023-03-21T09:08:03.560Z,13.53
2023-03-21T09:10:31.838Z,14.37
2023-03-21T09:13:00.176Z,14.83
2023-03-21T09:15:29.958Z,14.40
2023-03-21T09:18:13.148Z,14.90
2023-03-21T09:20:43.120Z,11.90
2023-03-21T09:23:12.383Z,13.53
2023-03-21T09:25:40.964Z,14.23
2023-03-21T09:28:09.816Z,13.03
2023-03-21T09:30:39.505Z,13.60
2023-03-21T09:33:13.175Z,13.33
2023-03-21T09:35:42.864Z,13.30
2023-03-21T09:38:11.286Z,14.50
2023-03-21T09:40:58.331Z,15.03
2023-03-21T09:43:38.593Z,14.97
2023-03-21T09:46:13.245Z,16.97
2023-03-21T09:48:57.113Z,14.90
2023-03-21T09:51:30.321Z,15.70
2023-03-21T09:54:03.917Z,16.30
2023-03-21T09:56:32.391Z,17.00
2023-03-21T09:59:03.306Z,15.70
2023-03-21T10:01:34.670Z,17.27
2023-03-21T10:04:06.446Z,16.80
2023-03-21T10:06:39.263Z,15.33
2023-03-21T10:09:09.801Z,16.37
2023-03-21T10:11:45.026Z,13.50
2023-03-21T10:14:22.138Z,17.70
2023-03-21T10:16:55.844Z,16.33
2023-03-21T10:19:24.562Z,13.70
2023-03-21T10:22:02.740Z,14.40
2023-03-21T10:24:34.552Z,14.13
2023-03-21T10:27:05.677Z,14.77
2023-03-21T10:29:40.031Z,14.80
2023-03-21T10:32:13.068Z,15.37
2023-03-21T10:34:45.067Z,15.63
2023-03-21T10:37:15.314Z,15.23
2023-03-21T10:39:45.100Z,16.50
2023-03-21T10:42:22.362Z,14.30
2023-03-21T10:44:53.467Z,16.80
2023-03-21T10:47:26.170Z,16.57
2023-03-21T10:50:11.312Z,16.50
2023-03-21T10:52:46.555Z,16.10
2023-03-21T10:55:24.594Z,15.00
2023-03-21T10:57:59.117Z,15.10
2023-03-21T11:00:31.507Z,14.00
2023-03-21T11:03:03.410Z,13.73
2023-03-21T11:05:37.650Z,15.00
2023-03-21T11:08:11.884Z,14.47
2023-03-21T11:10:52.551Z,14.47
2023-03-21T11:13:26.504Z,15.20
2023-03-21T11:15:56.855Z,16.53
2023-03-21T11:18:29.040Z,15.90
2023-03-21T11:20:59.841Z,13.30
2023-03-21T11:23:31.803Z,15.10
2023-03-21T11:26:01.961Z,14.80
2023-03-21T11:28:38.690Z,16.37
2023-03-21T11:31:09.342Z,15.87
2023-03-21T11:33:41.714Z,14.97
2023-03-21T11:36:33.796Z,15.43
2023-03-21T11:39:15.560Z,14.73
2023-03-21T11:41:44.590Z,13.20
2023-03-21T11:44:28.954Z,15.20
2023-03-21T11:46:57.511Z,15.60
2023-03-21T11:49:27.999Z,14.60
2023-03-21T11:52:12.538Z,14.67
2023-03-21T11:55:05.879Z,15.80
2023-03-21T11:57:40.769Z,12.27
2023-03-21T12:00:18.349Z,17.47
2023-03-21T12:03:21.964Z,14.40
2023-03-21T12:05:55.583Z,12.33
2023-03-21T12:08:38.796Z,11.53
2023-03-21T12:11:16.777Z,12.83
2023-03-21T12:13:55.956Z,13.60
2023-03-21T12:16:35.026Z,11.57
2023-03-21T12:19:34.459Z,13.73
2023-03-21T12:22:12.139Z,13.57
2023-03-21T12:24:45.607Z,13.30
2023-03-21T12:27:25.437Z,14.43
2023-03-21T12:30:11.420Z,13.60
2023-03-21T12:32:54.658Z,12.47
2023-03-21T12:35:38.070Z,13.37
2023-03-21T12:38:17.214Z,11.83
2023-03-21T12:41:02.948Z,11.83
2023-03-21T12:43:41.412Z,12.30
2023-03-21T12:46:18.478Z,14.13
2023-03-21T12:48:50.816Z,13.30
2023-03-21T12:51:24.271Z,12.03
2023-03-21T12:54:07.406Z,13.03
2023-03-21T12:56:41.129Z,12.70
2023-03-21T12:59:22.006Z,11.80
2023-03-21T13:01:55.790Z,12.20
2023-03-21T13:04:51.540Z,13.87
2023-03-21T13:07:25.313Z,14.77
2023-03-21T13:09:57.057Z,14.03
2023-03-21T13:12:43.251Z,15.80
2023-03-21T13:15:52.485Z,16.87
2023-03-21T13:18:30.069Z,16.43
2023-03-21T13:21:00.179Z,18.93
2023-03-21T13:23:36.309Z,18.17
2023-03-21T13:26:11.329Z,17.40
2023-03-21T13:28:41.865Z,19.10
2023-03-21T13:31:21.456Z,19.10
2023-03-21T13:33:51.530Z,18.87
2023-03-21T13:36:26.719Z,19.80
2023-03-21T13:39:00.769Z,19.10
2023-03-21T13:41:34.718Z,21.10
2023-03-21T13:44:20.152Z,20.13
2023-03-21T13:46:56.388Z,19.90
2023-03-21T13:49:31.265Z,17.40
2023-03-21T13:52:02.412Z,20.57
2023-03-21T13:54:48.771Z,20.50
2023-03-21T13:57:39.551Z,18.83
2023-03-21T14:00:25.799Z,21.20
2023-03-21T14:03:03.750Z,19.97
2023-03-21T14:05:33.653Z,21.60
2023-03-21T14:08:15.370Z,19.03
2023-03-21T14:10:49.174Z,20.17
2023-03-21T14:13:22.040Z,18.90
2023-03-21T14:15:56.315Z,19.40
2023-03-21T14:18:41.077Z,23.53
2023-03-21T14:21:23.694Z,22.20
2023-03-21T14:23:58.737Z,20.53
2023-03-21T14:26:28.976Z,20.47
2023-03-21T14:28:59.899Z,19.17
2023-03-21T14:31:28.469Z,22.03
2023-03-21T14:33:59.735Z,22.87
2023-03-21T14:36:30.936Z,21.67
2023-03-21T14:39:05.736Z,22.27
2023-03-21T14:41:35.266Z,21.43
2023-03-21T14:44:16.012Z,19.87
2023-03-21T14:46:45.234Z,24.23
2023-03-21T14:49:23.157Z,21.50
2023-03-21T14:51:53.236Z,23.57
2023-03-21T14:54:22.001Z,24.13
2023-03-21T14:56:53.461Z,26.00
2023-03-21T14:59:27.860Z,28.40
2023-03-21T15:01:56.376Z,30.93
2023-03-21T15:04:24.714Z,25.73
2023-03-21T15:06:59.382Z,24.37
2023-03-21T15:09:31.919Z,22.80
2023-03-21T15:12:02.990Z,24.67
2023-03-21T15:14:36.631Z,23.57
2023-03-21T15:17:07.687Z,34.77
2023-03-21T15:19:39.154Z,24.43
2023-03-21T15:22:17.886Z,22.90
2023-03-21T15:24:51.078Z,25.40
2023-03-21T15:27:21.548Z,25.77
2023-03-21T15:29:54.230Z,25.30
2023-03-21T15:32:26.469Z,24.90
2023-03-21T15:34:56.683Z,23.40
2023-03-21T15:37:27.605Z,27.77
2023-03-21T15:40:11.461Z,25.90
2023-03-21T15:42:41.942Z,26.53
2023-03-21T15:45:20.098Z,26.20
2023-03-21T15:48:00.776Z,26.40
2023-03-21T15:50:35.468Z,24.80
2023-03-21T15:53:07.561Z,24.20
2023-03-21T15:55:48.179Z,26.33
2023-03-21T15:58:19.721Z,24.40
2023-03-21T16:00:55.252Z,28.00
2023-03-21T16:03:28.419Z,25.93
2023-03-21T16:06:04.792Z,23.03
2023-03-21T16:08:37.627Z,24.30
2023-03-21T16:11:15.579Z,23.60
2023-03-21T16:13:43.961Z,27.10
2023-03-21T16:16:18.934Z,31.70
2023-03-21T16:18:47.358Z,24.70
2023-03-21T16:21:19.444Z,24.47
2023-03-21T16:23:48.348Z,24.97
2023-03-21T16:26:18.948Z,24.00
2023-03-21T16:28:47.872Z,41.17
2023-03-21T16:31:19.173Z,28.80
2023-03-21T16:33:48.880Z,25.27
2023-03-21T16:36:19.241Z,24.90
2023-03-21T16:38:49.670Z,27.17
2023-03-21T16:41:18.989Z,28.00
2023-03-21T16:43:47.867Z,28.80
2023-03-21T16:46:19.827Z,35.03
2023-03-21T16:48:51.037Z,33.13
2023-03-21T16:51:21.666Z,35.63
2023-03-21T16:53:51.526Z,28.00
2023-03-21T16:56:23.088Z,28.53
2023-03-21T16:58:51.703Z,26.83
2023-03-21T17:01:26.121Z,28.30
2023-03-21T17:03:55.612Z,33.30
2023-03-21T17:06:26.007Z,33.50
2023-03-21T17:08:55.073Z,31.60
2023-03-21T17:11:25.092Z,25.23
2023-03-21T17:13:55.112Z,23.27
2023-03-21T17:16:27.331Z,25.77
2023-03-21T17:18:56.445Z,22.50
2023-03-21T17:21:26.868Z,26.70
2023-03-21T17:23:55.438Z,25.87
2023-03-21T17:26:26.067Z,23.47
2023-03-21T17:28:55.516Z,28.13
2023-03-21T17:31:27.098Z,30.53
2023-03-21T17:33:55.501Z,29.57
2023-03-21T17:36:28.059Z,31.00
2023-03-21T17:38:56.658Z,30.40
2023-03-21T17:41:25.922Z,33.07
2023-03-21T17:43:55.790Z,29.37
2023-03-21T17:46:27.357Z,27.23
2023-03-21T17:48:56.855Z,30.17
2023-03-21T17:51:30.182Z,26.37
2023-03-21T17:53:58.668Z,29.20
2023-03-21T17:56:30.040Z,25.90
2023-03-21T17:58:59.758Z,22.60
2023-03-21T18:01:30.925Z,23.37
2023-03-21T18:03:59.807Z,22.40
2023-03-21T18:06:28.605Z,26.30
2023-03-21T18:08:57.550Z,23.97
2023-03-21T18:11:28.090Z,24.97
2023-03-21T18:14:09.878Z,22.37
2023-03-21T18:16:44.348Z,21.70
2023-03-21T18:19:13.974Z,23.37
2023-03-21T18:21:45.250Z,22.13
2023-03-21T18:24:14.323Z,19.00
2023-03-21T18:26:42.935Z,20.13
2023-03-21T18:32:07.308Z,21.87
2023-03-21T18:34:37.344Z,25.77
2023-03-21T18:37:07.978Z,18.30
2023-03-21T18:39:37.280Z,19.40
2023-03-21T18:42:06.488Z,20.13
2023-03-21T18:44:39.306Z,18.20
2023-03-21T18:47:10.826Z,21.50
2023-03-21T18:52:28.154Z,19.00
2023-03-21T18:54:56.469Z,19.10
2023-03-21T18:57:36.356Z,18.90
2023-03-21T19:00:11.105Z,19.83
2023-03-21T19:02:45.660Z,20.87
2023-03-21T19:05:16.224Z,19.80
2023-03-21T19:07:44.651Z,20.03
2023-03-21T19:10:18.889Z,21.97
2023-03-21T19:12:48.048Z,16.60
2023-03-21T19:15:19.616Z,18.50
2023-03-21T19:20:39.028Z,19.00
2023-03-21T19:23:09.670Z,17.83
2023-03-21T19:25:39.270Z,18.67
2023-03-21T19:28:08.450Z,19.83
2023-03-21T19:30:37.586Z,18.23
2023-03-21T19:33:07.628Z,17.23
2023-03-21T19:35:40.992Z,18.07
2023-03-21T19:38:09.412Z,17.13
2023-03-21T19:40:40.685Z,16.40
2023-03-21T19:43:31.098Z,15.97
2023-03-21T19:46:00.767Z,13.13
2023-03-21T19:48:30.909Z,17.23
2023-03-21T19:51:26.722Z,16.37
2023-03-21T19:53:50.709Z,16.40
2023-03-21T19:56:23.079Z,18.03
2023-03-21T19:58:52.101Z,17.73
2023-03-21T20:01:20.710Z,16.37
2023-03-21T20:03:50.640Z,19.60
2023-03-21T20:06:19.220Z,19.57
2023-03-21T20:11:36.586Z,16.40
2023-03-21T20:14:05.517Z,16.10
2023-03-21T20:16:35.629Z,15.47
2023-03-21T20:19:08.840Z,16.57
2023-03-21T20:21:52.244Z,17.33
2023-03-21T20:24:24.944Z,17.50
2023-03-21T20:26:53.797Z,25.50
2023-03-21T20:30:07.521Z,25.10
2023-03-21T20:32:10.688Z,15.67
2023-03-21T20:34:40.425Z,14.60
2023-03-21T20:37:08.738Z,13.13
2023-03-21T20:39:37.199Z,14.03
2023-03-21T20:42:06.112Z,19.13
2023-03-21T20:45:03.052Z,20.77
2023-03-21T20:47:23.814Z,15.10
2023-03-21T20:49:55.220Z,12.93
2023-03-21T20:55:13.549Z,12.43
2023-03-21T20:57:42.322Z,11.43
2023-03-21T21:00:15.017Z,11.97
2023-03-21T21:02:45.091Z,15.03
2023-03-21T21:05:27.408Z,14.97
2023-03-21T21:07:57.343Z,13.80
2023-03-21T21:10:26.292Z,15.17
2023-03-21T21:12:54.771Z,16.10
2023-03-21T21:15:23.065Z,13.20
2023-03-21T21:18:08.700Z,13.03
2023-03-21T21:20:39.217Z,12.67
2023-03-21T21:23:09.656Z,11.77
2023-03-21T21:25:38.204Z,11.33
2023-03-21T21:28:09.575Z,10.53
2023-03-21T21:30:39.496Z,10.13
2023-03-21T21:33:08.022Z,11.00
2023-03-21T21:35:37.056Z,10.40
2023-03-21T21:38:07.126Z,12.70
2023-03-21T21:40:35.444Z,13.83
2023-03-21T21:43:03.992Z,13.83
2023-03-21T21:45:32.426Z,12.57
2023-03-21T21:48:00.890Z,11.20
2023-03-21T21:50:29.225Z,11.93
2023-03-21T21:52:58.018Z,10.60
2023-03-21T21:55:27.737Z,12.23
2023-03-21T21:57:58.206Z,16.70
2023-03-21T22:00:27.915Z,12.63
2023-03-21T22:02:56.322Z,11.87
2023-03-21T22:05:24.791Z,12.10
2023-03-21T22:07:55.191Z,10.03
2023-03-21T22:10:25.768Z,9.60
2023-03-21T22:12:55.556Z,8.40
2023-03-21T22:15:23.959Z,10.37
2023-03-21T22:17:52.410Z,10.23
2023-03-21T22:20:25.722Z,12.20
2023-03-21T22:22:56.706Z,9.97
2023-03-21T22:25:25.829Z,15.73
2023-03-21T22:27:55.607Z,11.30
2023-03-21T22:30:24.709Z,10.90
2023-03-21T22:33:08.011Z,10.33
2023-03-21T22:35:37.564Z,9.30
2023-03-21T22:38:08.998Z,11.13
2023-03-21T22:40:38.817Z,15.67
2023-03-21T22:43:09.326Z,13.60
2023-03-21T22:45:37.688Z,13.57
2023-03-21T22:48:08.521Z,13.77
2023-03-21T22:50:37.179Z,13.97
2023-03-21T22:53:05.645Z,13.27
2023-03-21T22:55:34.011Z,12.93
2023-03-21T22:58:02.542Z,13.43
2023-03-21T23:00:32.763Z,12.03
2023-03-21T23:03:01.204Z,12.10
2023-03-21T23:05:29.600Z,12.00
2023-03-21T23:07:58.091Z,11.57
2023-03-21T23:10:26.500Z,12.03
2023-03-21T23:12:54.830Z,17.53
2023-03-21T23:15:23.133Z,13.10
2023-03-21T23:17:53.003Z,13.13
2023-03-21T23:20:21.375Z,12.53
2023-03-21T23:22:49.665Z,11.90
2023-03-21T23:25:20.584Z,10.90
2023-03-21T23:27:49.497Z,13.67
2023-03-21T23:30:17.763Z,11.90
2023-03-21T23:32:46.019Z,13.47
2023-03-21T23:35:15.847Z,11.93
2023-03-21T23:37:52.655Z,11.27
2023-03-21T23:40:22.002Z,11.77
2023-03-21T23:42:50.672Z,12.10
2023-03-21T23:45:19.076Z,12.30
2023-03-21T23:47:47.520Z,12.67
2023-03-21T23:53:02.177Z,11.47
2023-03-21T23:55:30.678Z,11.87
2023-03-21T23:58:00.061Z,12.20
